9HGIG GCTS-GVAC
Flight info
| Callsign | 9HGIG |
|---|---|
| Flight time | N/A |
| Altitude | 41000 |
| Route | REMGI N729 DEREV/N0476F400 N857 GUNET DCT POLMO BIRAP1F |
| Aircraft | A346/H-SDE2E3FGHIJ3J4J5M1RWXY/LB1D1 |
Departure
| Time | N/A |
|---|---|
| Airport | Tenerife Sur Airport (GCTS) |
Arrival
| Time | 2026-04-28 21:00 |
|---|---|
| Airport | Amílcar Cabral International Airport (GVAC) |
| Time | Latitude | Longitude | Altitude | Speed | Heading |
|---|---|---|---|---|---|
| 2026-04-28 20:20 | 18.28352 | -20.49876 | 41004 ft | 438 kts | 216° |
| 2026-04-28 20:21 | 18.23031 | -20.52944 | 41012 ft | 438 kts | 216° |
| 2026-04-28 20:21 | 18.17661 | -20.56036 | 41014 ft | 438 kts | 216° |
| 2026-04-28 20:22 | 18.12330 | -20.59105 | 41017 ft | 438 kts | 216° |
| 2026-04-28 20:22 | 18.06977 | -20.62185 | 41014 ft | 438 kts | 216° |
| 2026-04-28 20:23 | 18.01603 | -20.65276 | 41013 ft | 439 kts | 216° |
| 2026-04-28 20:23 | 17.96272 | -20.68340 | 40996 ft | 439 kts | 215° |
| 2026-04-28 20:24 | 17.90904 | -20.71428 | 41018 ft | 440 kts | 215° |
| 2026-04-28 20:24 | 17.85517 | -20.74517 | 41004 ft | 440 kts | 215° |
| 2026-04-28 20:25 | 17.80135 | -20.77602 | 41004 ft | 440 kts | 215° |
| 2026-04-28 20:25 | 17.74780 | -20.80670 | 41014 ft | 440 kts | 215° |
| 2026-04-28 20:26 | 17.69391 | -20.83759 | 41015 ft | 441 kts | 215° |
| 2026-04-28 20:26 | 17.64025 | -20.86829 | 41015 ft | 441 kts | 215° |
| 2026-04-28 20:27 | 17.58630 | -20.89920 | 41003 ft | 442 kts | 214° |
| 2026-04-28 20:27 | 17.53239 | -20.92999 | 41010 ft | 442 kts | 214° |
| 2026-04-28 20:28 | 17.47813 | -20.96096 | 41011 ft | 442 kts | 214° |
| 2026-04-28 20:28 | 17.42398 | -20.99186 | 41016 ft | 442 kts | 214° |
| 2026-04-28 20:29 | 17.36971 | -21.02282 | 41013 ft | 443 kts | 214° |
| 2026-04-28 20:29 | 17.31558 | -21.05367 | 41016 ft | 443 kts | 214° |
| 2026-04-28 20:30 | 17.26168 | -21.08438 | 41000 ft | 443 kts | 214° |
| 2026-04-28 20:30 | 17.20731 | -21.11536 | 41015 ft | 444 kts | 214° |
| 2026-04-28 20:31 | 17.15323 | -21.14609 | 41015 ft | 445 kts | 214° |
| 2026-04-28 20:31 | 17.09867 | -21.17710 | 41018 ft | 445 kts | 214° |
| 2026-04-28 20:32 | 17.04408 | -21.20811 | 41019 ft | 445 kts | 214° |
| 2026-04-28 20:32 | 16.98987 | -21.23888 | 41020 ft | 445 kts | 214° |
| 2026-04-28 20:32 | 16.96260 | -21.25435 | 40808 ft | 446 kts | 214° |
| 2026-04-28 20:33 | 16.93533 | -21.26981 | 40355 ft | 443 kts | 214° |
| 2026-04-28 20:33 | 16.90807 | -21.28526 | 39666 ft | 445 kts | 214° |
| 2026-04-28 20:33 | 16.88076 | -21.30076 | 38939 ft | 448 kts | 214° |
| 2026-04-28 20:33 | 16.85320 | -21.31639 | 38146 ft | 452 kts | 214° |
| 2026-04-28 20:34 | 16.82576 | -21.33195 | 37300 ft | 455 kts | 214° |
| 2026-04-28 20:34 | 16.79778 | -21.34780 | 36460 ft | 459 kts | 214° |
| 2026-04-28 20:34 | 16.76945 | -21.36384 | 35599 ft | 464 kts | 214° |
| 2026-04-28 20:34 | 16.74088 | -21.38002 | 34763 ft | 468 kts | 214° |
| 2026-04-28 20:35 | 16.71201 | -21.39635 | 33941 ft | 472 kts | 214° |
| 2026-04-28 20:35 | 16.68300 | -21.41275 | 33062 ft | 475 kts | 214° |
| 2026-04-28 20:35 | 16.65412 | -21.42905 | 32216 ft | 478 kts | 214° |
| 2026-04-28 20:35 | 16.62475 | -21.44563 | 31393 ft | 480 kts | 214° |
| 2026-04-28 20:36 | 16.59528 | -21.46227 | 30547 ft | 483 kts | 214° |
| 2026-04-28 20:36 | 16.56558 | -21.47907 | 29586 ft | 486 kts | 214° |
| 2026-04-28 20:36 | 16.53565 | -21.49602 | 28635 ft | 488 kts | 213° |
| 2026-04-28 20:36 | 16.50615 | -21.51268 | 27875 ft | 486 kts | 213° |
| 2026-04-28 20:37 | 16.47657 | -21.52932 | 27414 ft | 481 kts | 213° |
| 2026-04-28 20:37 | 16.44720 | -21.54584 | 26828 ft | 477 kts | 213° |
| 2026-04-28 20:37 | 16.41813 | -21.56220 | 26245 ft | 472 kts | 213° |
| 2026-04-28 20:37 | 16.38922 | -21.57848 | 25607 ft | 468 kts | 213° |
| 2026-04-28 20:38 | 16.36069 | -21.59455 | 24993 ft | 464 kts | 212° |
| 2026-04-28 20:38 | 16.33272 | -21.61032 | 24407 ft | 459 kts | 213° |
| 2026-04-28 20:38 | 16.30698 | -21.62948 | 23770 ft | 448 kts | 228° |
| 2026-04-28 20:38 | 16.28897 | -21.65532 | 23143 ft | 436 kts | 245° |
| 2026-04-28 20:39 | 16.27936 | -21.68447 | 22558 ft | 425 kts | 261° |
| 2026-04-28 20:39 | 16.27777 | -21.71490 | 22022 ft | 416 kts | 273° |
| 2026-04-28 20:39 | 16.27892 | -21.74486 | 21490 ft | 411 kts | 274° |
| 2026-04-28 20:39 | 16.28006 | -21.77449 | 20966 ft | 406 kts | 274° |
| 2026-04-28 20:40 | 16.28119 | -21.80384 | 20466 ft | 401 kts | 274° |
| 2026-04-28 20:40 | 16.28229 | -21.83246 | 19956 ft | 398 kts | 274° |
| 2026-04-28 20:40 | 16.28341 | -21.86137 | 19450 ft | 394 kts | 274° |
| 2026-04-28 20:40 | 16.28453 | -21.89029 | 18936 ft | 391 kts | 274° |
| 2026-04-28 20:41 | 16.28563 | -21.91861 | 18440 ft | 389 kts | 274° |
| 2026-04-28 20:41 | 16.28672 | -21.94673 | 17889 ft | 386 kts | 274° |
| 2026-04-28 20:41 | 16.28781 | -21.97433 | 17370 ft | 383 kts | 274° |
| 2026-04-28 20:41 | 16.28890 | -22.00204 | 16858 ft | 380 kts | 274° |
| 2026-04-28 20:42 | 16.28996 | -22.02942 | 16356 ft | 377 kts | 273° |
| 2026-04-28 20:42 | 16.29101 | -22.05671 | 15865 ft | 374 kts | 273° |
| 2026-04-28 20:42 | 16.29203 | -22.08336 | 15375 ft | 371 kts | 272° |
| 2026-04-28 20:42 | 16.29304 | -22.11015 | 14893 ft | 369 kts | 272° |
| 2026-04-28 20:43 | 16.29405 | -22.13689 | 14404 ft | 367 kts | 272° |
| 2026-04-28 20:43 | 16.29504 | -22.16342 | 13922 ft | 365 kts | 271° |
| 2026-04-28 20:43 | 16.29603 | -22.18989 | 13380 ft | 363 kts | 271° |
| 2026-04-28 20:43 | 16.29667 | -22.20725 | 13037 ft | 360 kts | 271° |
| 2026-04-28 20:44 | 16.29762 | -22.23327 | 12540 ft | 357 kts | 271° |
| 2026-04-28 20:44 | 16.29857 | -22.25900 | 12058 ft | 353 kts | 271° |
| 2026-04-28 20:44 | 16.29982 | -22.29279 | 11430 ft | 348 kts | 270° |
| 2026-04-28 20:44 | 16.30043 | -22.30938 | 11188 ft | 343 kts | 270° |
| 2026-04-28 20:45 | 16.30138 | -22.33378 | 11002 ft | 329 kts | 271° |
| 2026-04-28 20:45 | 16.30368 | -22.35707 | 10836 ft | 317 kts | 276° |
| 2026-04-28 20:45 | 16.30936 | -22.38630 | 10605 ft | 303 kts | 281° |
| 2026-04-28 20:45 | 16.31280 | -22.40051 | 10516 ft | 295 kts | 281° |
| 2026-04-28 20:46 | 16.31781 | -22.42083 | 10368 ft | 283 kts | 281° |
| 2026-04-28 20:46 | 16.32259 | -22.44015 | 10268 ft | 272 kts | 281° |
| 2026-04-28 20:46 | 16.32723 | -22.45890 | 10168 ft | 263 kts | 280° |
| 2026-04-28 20:46 | 16.33174 | -22.47716 | 10068 ft | 257 kts | 280° |
| 2026-04-28 20:47 | 16.33618 | -22.49521 | 9834 ft | 257 kts | 280° |
| 2026-04-28 20:47 | 16.34062 | -22.51335 | 9497 ft | 257 kts | 280° |
| 2026-04-28 20:47 | 16.34503 | -22.53140 | 9195 ft | 256 kts | 281° |
| 2026-04-28 20:47 | 16.34939 | -22.54916 | 8903 ft | 254 kts | 281° |
| 2026-04-28 20:48 | 16.35377 | -22.56698 | 8617 ft | 253 kts | 281° |
| 2026-04-28 20:48 | 16.35813 | -22.58470 | 8340 ft | 251 kts | 281° |
| 2026-04-28 20:48 | 16.36246 | -22.60225 | 8065 ft | 249 kts | 282° |
| 2026-04-28 20:48 | 16.36678 | -22.61974 | 7792 ft | 248 kts | 282° |
| 2026-04-28 20:49 | 16.37110 | -22.63725 | 7516 ft | 247 kts | 282° |
| 2026-04-28 20:49 | 16.37540 | -22.65473 | 7241 ft | 246 kts | 282° |
| 2026-04-28 20:49 | 16.37966 | -22.67204 | 6955 ft | 246 kts | 282° |
| 2026-04-28 20:49 | 16.38390 | -22.68931 | 6661 ft | 246 kts | 283° |
| 2026-04-28 20:50 | 16.38814 | -22.70666 | 6328 ft | 247 kts | 283° |
| 2026-04-28 20:50 | 16.39235 | -22.72388 | 6008 ft | 248 kts | 283° |
| 2026-04-28 20:50 | 16.39661 | -22.74129 | 5694 ft | 247 kts | 283° |
| 2026-04-28 20:50 | 16.40086 | -22.75877 | 5386 ft | 247 kts | 284° |
| 2026-04-28 20:51 | 16.40512 | -22.77615 | 5090 ft | 247 kts | 284° |
| 2026-04-28 20:51 | 16.40938 | -22.79364 | 4787 ft | 248 kts | 284° |
| 2026-04-28 20:51 | 16.41357 | -22.81088 | 4485 ft | 249 kts | 285° |
| 2026-04-28 20:51 | 16.41781 | -22.82839 | 4195 ft | 248 kts | 285° |
| 2026-04-28 20:52 | 16.42205 | -22.84586 | 3907 ft | 249 kts | 286° |
| 2026-04-28 20:52 | 16.42635 | -22.86345 | 3614 ft | 250 kts | 287° |
| 2026-04-28 20:52 | 16.43065 | -22.88103 | 3338 ft | 251 kts | 287° |
| 2026-04-28 20:52 | 16.43496 | -22.89853 | 3078 ft | 249 kts | 287° |
| 2026-04-28 20:53 | 16.44410 | -22.93160 | 2997 ft | 221 kts | 304° |
| 2026-04-28 20:53 | 16.45474 | -22.94185 | 2998 ft | 201 kts | 336° |
| 2026-04-28 20:53 | 16.46783 | -22.94604 | 3004 ft | 195 kts | 353° |
| 2026-04-28 20:54 | 16.48134 | -22.94724 | 3009 ft | 194 kts | 359° |
| 2026-04-28 20:54 | 16.49467 | -22.94743 | 3005 ft | 194 kts | 0° |
| 2026-04-28 20:54 | 16.50816 | -22.94745 | 3009 ft | 193 kts | 1° |
| 2026-04-28 20:54 | 16.52163 | -22.94747 | 3004 ft | 194 kts | 1° |
| 2026-04-28 20:55 | 16.53511 | -22.94752 | 3002 ft | 193 kts | 1° |
| 2026-04-28 20:55 | 16.54816 | -22.94761 | 3010 ft | 177 kts | 1° |
| 2026-04-28 20:55 | 16.55978 | -22.94769 | 3009 ft | 159 kts | 1° |
| 2026-04-28 20:55 | 16.57078 | -22.94778 | 3001 ft | 154 kts | 1° |
| 2026-04-28 20:56 | 16.58080 | -22.94786 | 2916 ft | 140 kts | 1° |
| 2026-04-28 20:56 | 16.59045 | -22.94792 | 2718 ft | 136 kts | 1° |
| 2026-04-28 20:56 | 16.59994 | -22.94801 | 2518 ft | 135 kts | 1° |
| 2026-04-28 20:56 | 16.60933 | -22.94808 | 2309 ft | 134 kts | 2° |
| 2026-04-28 20:57 | 16.61863 | -22.94814 | 2126 ft | 133 kts | 2° |
| 2026-04-28 20:57 | 16.62793 | -22.94820 | 2036 ft | 134 kts | 2° |
| 2026-04-28 20:57 | 16.63723 | -22.94835 | 1915 ft | 134 kts | 1° |
| 2026-04-28 20:57 | 16.64654 | -22.94855 | 1745 ft | 133 kts | 358° |
| 2026-04-28 20:58 | 16.65582 | -22.94881 | 1532 ft | 133 kts | 4° |
| 2026-04-28 20:58 | 16.66506 | -22.94865 | 1293 ft | 133 kts | 3° |
| 2026-04-28 20:58 | 16.67432 | -22.94865 | 1122 ft | 132 kts | 2° |
| 2026-04-28 20:58 | 16.68340 | -22.94872 | 944 ft | 132 kts | 1° |
| 2026-04-28 20:59 | 16.69233 | -22.94876 | 810 ft | 132 kts | 2° |
| 2026-04-28 20:59 | 16.70179 | -22.94877 | 665 ft | 132 kts | 1° |
| 2026-04-28 20:59 | 16.71102 | -22.94874 | 466 ft | 134 kts | 1° |
| 2026-04-28 20:59 | 16.72025 | -22.94891 | 295 ft | 131 kts | 3° |
| 2026-04-28 21:00 | 16.72913 | -22.94886 | 161 ft | 114 kts | 0° |
| 2026-04-28 21:00 | 16.73453 | -22.94896 | 161 ft | 53 kts | 360° |
| 2026-04-28 21:00 | 16.73806 | -22.94897 | 159 ft | 50 kts | 358° |
| 2026-04-28 21:00 | 16.74074 | -22.94900 | 158 ft | 37 kts | 0° |
| 2026-04-28 21:01 | 16.74225 | -22.94858 | 158 ft | 14 kts | 49° |
| 2026-04-28 21:01 | 16.74260 | -22.94805 | 158 ft | 9 kts | 57° |
| 2026-04-28 21:01 | 16.74294 | -22.94740 | 158 ft | 10 kts | 91° |
| 2026-04-28 21:01 | 16.74230 | -22.94702 | 159 ft | 14 kts | 178° |
| 2026-04-28 21:02 | 16.74114 | -22.94698 | 159 ft | 19 kts | 179° |
| 2026-04-28 21:02 | 16.73969 | -22.94697 | 159 ft | 18 kts | 180° |
| 2026-04-28 21:02 | 16.73952 | -22.94697 | 158 ft | 0 kts | 180° |
| 2026-04-28 21:02 | 16.73951 | -22.94697 | 158 ft | 0 kts | 180° |
| 2026-04-28 21:03 | 16.73947 | -22.94697 | 158 ft | 2 kts | 180° |
| 2026-04-28 21:03 | 16.73911 | -22.94697 | 159 ft | 8 kts | 180° |
| 2026-04-28 21:03 | 16.73869 | -22.94697 | 159 ft | 5 kts | 180° |
| 2026-04-28 21:03 | 16.73813 | -22.94697 | 159 ft | 11 kts | 180° |
| 2026-04-28 21:04 | 16.73715 | -22.94697 | 159 ft | 17 kts | 179° |
| 2026-04-28 21:04 | 16.73611 | -22.94638 | 159 ft | 21 kts | 111° |
| 2026-04-28 21:04 | 16.73513 | -22.94596 | 159 ft | 17 kts | 181° |
| 2026-04-28 21:04 | 16.73377 | -22.94594 | 159 ft | 23 kts | 179° |
| 2026-04-28 21:05 | 16.73224 | -22.94593 | 159 ft | 15 kts | 179° |
| 2026-04-28 21:05 | 16.73177 | -22.94585 | 159 ft | 6 kts | 138° |
| 2026-04-28 21:05 | 16.73172 | -22.94567 | 159 ft | 6 kts | 105° |
| 2026-04-28 21:05 | 16.73167 | -22.94547 | 159 ft | 2 kts | 101° |
| 2026-04-28 21:06 | 16.73166 | -22.94531 | 159 ft | 0 kts | 92° |
| 2026-04-28 21:06 | 16.73166 | -22.94526 | 159 ft | 0 kts | 90° |